createdAt,value
2022-08-18T00:00:11.023Z,36.87
2022-08-18T00:00:38.054Z,36.87
2022-08-18T00:01:08.174Z,36.89
2022-08-18T00:01:38.225Z,36.88
2022-08-18T00:02:08.266Z,36.82
2022-08-18T00:02:38.312Z,36.85
2022-08-18T00:03:14.263Z,36.88
2022-08-18T00:03:55.811Z,36.88
2022-08-18T00:04:22.824Z,36.88
2022-08-18T00:04:48.940Z,36.91
2022-08-18T00:05:08.323Z,36.95
2022-08-18T00:05:38.477Z,36.91
2022-08-18T00:06:08.414Z,36.88
2022-08-18T00:06:38.487Z,36.92
2022-08-18T00:07:08.567Z,36.86
2022-08-18T00:07:38.640Z,36.86
2022-08-18T00:08:08.722Z,36.85
2022-08-18T00:08:38.794Z,36.91
2022-08-18T00:09:08.872Z,36.92
2022-08-18T00:09:38.975Z,36.89
2022-08-18T00:10:10.076Z,36.87
2022-08-18T00:10:39.169Z,36.91
2022-08-18T00:11:09.241Z,36.85
2022-08-18T00:11:40.716Z,36.82
2022-08-18T00:12:09.536Z,36.88
2022-08-18T00:12:39.454Z,36.86
2022-08-18T00:13:09.527Z,36.88
2022-08-18T00:13:39.602Z,36.87
2022-08-18T00:14:09.674Z,36.87
2022-08-18T00:14:39.768Z,36.89
2022-08-18T00:15:09.871Z,36.82
2022-08-18T00:15:48.762Z,36.87
2022-08-18T00:16:09.997Z,36.83
2022-08-18T00:16:40.106Z,36.87
2022-08-18T00:17:10.225Z,36.83
2022-08-18T00:17:40.338Z,36.82
2022-08-18T00:18:10.454Z,36.86
2022-08-18T00:18:40.557Z,36.86
2022-08-18T00:19:10.669Z,36.88
2022-08-18T00:19:45.471Z,36.83
2022-08-18T00:20:10.811Z,36.85
2022-08-18T00:20:40.920Z,36.89
2022-08-18T00:21:10.918Z,36.77
2022-08-18T00:21:41.030Z,36.83
2022-08-18T00:22:14.799Z,36.85
2022-08-18T00:22:41.255Z,36.80
2022-08-18T00:23:11.364Z,36.81
2022-08-18T00:23:41.477Z,36.82
2022-08-18T00:24:11.590Z,36.82
2022-08-18T00:24:48.727Z,36.80
2022-08-18T00:25:11.732Z,36.82
2022-08-18T00:25:41.843Z,36.77
2022-08-18T00:26:11.959Z,36.83
2022-08-18T00:26:42.073Z,36.82
2022-08-18T00:27:12.198Z,36.77
2022-08-18T00:27:42.223Z,36.81
2022-08-18T00:28:12.340Z,36.79
2022-08-18T00:28:42.444Z,36.79
2022-08-18T00:29:12.564Z,36.81
2022-08-18T00:29:42.689Z,36.77
2022-08-18T00:30:12.673Z,36.86
2022-08-18T00:30:42.785Z,36.77
2022-08-18T00:31:12.895Z,36.83
2022-08-18T00:31:43.004Z,36.81
2022-08-18T00:32:13.116Z,36.80
2022-08-18T00:32:43.228Z,36.85
2022-08-18T00:33:13.337Z,36.85
2022-08-18T00:33:43.449Z,36.81
2022-08-18T00:34:13.561Z,36.83
2022-08-18T00:34:43.716Z,36.80
2022-08-18T00:35:13.758Z,36.80
2022-08-18T00:35:43.732Z,36.83
2022-08-18T00:36:13.845Z,36.83
2022-08-18T00:36:43.959Z,36.81
2022-08-18T00:37:14.070Z,36.80
2022-08-18T00:37:44.187Z,36.84
2022-08-18T00:38:24.913Z,36.80
2022-08-18T00:38:44.297Z,36.83
2022-08-18T00:39:14.405Z,36.87
2022-08-18T00:39:47.674Z,36.85
2022-08-18T00:40:14.633Z,36.86
2022-08-18T00:40:44.599Z,36.81
2022-08-18T00:41:14.713Z,36.80
2022-08-18T00:41:44.823Z,36.83
2022-08-18T00:42:28.684Z,36.86
2022-08-18T00:42:45.017Z,36.81
2022-08-18T00:43:15.038Z,36.80
2022-08-18T00:43:45.150Z,36.83
2022-08-18T00:44:15.265Z,36.83
2022-08-18T00:44:45.383Z,36.83
2022-08-18T00:45:15.371Z,36.83
2022-08-18T00:45:45.480Z,36.86
2022-08-18T00:46:15.594Z,36.87
2022-08-18T00:46:45.704Z,36.80
2022-08-18T00:47:15.816Z,36.84
2022-08-18T00:47:45.821Z,36.82
2022-08-18T00:48:15.978Z,36.87
2022-08-18T00:48:48.889Z,36.84
2022-08-18T00:49:16.034Z,36.83
2022-08-18T00:49:46.176Z,36.86
2022-08-18T00:50:16.318Z,36.80
2022-08-18T00:50:46.170Z,36.81
2022-08-18T00:51:16.281Z,36.80
2022-08-18T00:51:46.396Z,36.86
2022-08-18T00:52:16.508Z,36.84
2022-08-18T00:52:46.613Z,36.84
2022-08-18T00:53:16.731Z,36.86
2022-08-18T00:53:46.843Z,36.83
2022-08-18T00:54:16.838Z,36.86
2022-08-18T00:54:46.974Z,36.82
2022-08-18T00:55:16.959Z,36.80
2022-08-18T00:55:53.926Z,36.82
2022-08-18T00:56:17.081Z,36.84
2022-08-18T00:56:47.187Z,36.78
2022-08-18T00:57:17.303Z,36.84
2022-08-18T00:57:47.546Z,36.87
2022-08-18T00:58:17.433Z,36.81
2022-08-18T00:58:47.554Z,36.82
2022-08-18T00:59:17.660Z,36.84
2022-08-18T00:59:47.790Z,36.87
2022-08-18T01:00:17.780Z,36.81
2022-08-18T01:00:47.933Z,36.84
2022-08-18T01:01:18.090Z,36.86
2022-08-18T01:01:48.097Z,36.81
2022-08-18T01:02:18.210Z,36.84
2022-08-18T01:02:48.319Z,36.82
2022-08-18T01:03:24.970Z,36.83
2022-08-18T01:03:48.444Z,36.84
2022-08-18T01:04:18.558Z,36.80
2022-08-18T01:04:48.661Z,36.81
2022-08-18T01:05:18.871Z,36.80
2022-08-18T01:05:48.816Z,36.87
2022-08-18T01:06:18.888Z,36.85
2022-08-18T01:06:48.965Z,36.80
2022-08-18T01:07:19.038Z,36.81
2022-08-18T01:07:49.119Z,36.82
2022-08-18T01:08:21.845Z,36.84
2022-08-18T01:08:49.296Z,36.82
2022-08-18T01:09:19.369Z,36.84
2022-08-18T01:09:49.442Z,36.85
2022-08-18T01:10:19.532Z,36.84
2022-08-18T01:10:49.605Z,36.81
2022-08-18T01:11:19.675Z,36.82
2022-08-18T01:11:49.752Z,36.80
2022-08-18T01:12:44.101Z,36.78
2022-08-18T01:12:49.934Z,36.85
2022-08-18T01:13:20.009Z,36.80
2022-08-18T01:13:50.083Z,36.84
2022-08-18T01:14:20.151Z,36.81
2022-08-18T01:14:50.237Z,36.82
2022-08-18T01:15:28.777Z,36.81
2022-08-18T01:15:50.365Z,36.82
2022-08-18T01:16:20.475Z,36.78
2022-08-18T01:16:56.729Z,36.82
2022-08-18T01:17:20.595Z,36.82
2022-08-18T01:17:50.894Z,36.82
2022-08-18T01:18:20.810Z,36.81
2022-08-18T01:18:50.921Z,36.78
2022-08-18T01:19:21.030Z,36.82
2022-08-18T01:19:51.068Z,36.80
2022-08-18T01:20:21.197Z,36.82
2022-08-18T01:20:51.181Z,36.78
2022-08-18T01:21:21.292Z,36.85
2022-08-18T01:21:51.407Z,36.82
2022-08-18T01:22:21.515Z,36.76
2022-08-18T01:22:51.621Z,36.79
2022-08-18T01:23:21.733Z,36.84
2022-08-18T01:23:51.842Z,36.79
2022-08-18T01:24:22.228Z,36.82
2022-08-18T01:24:51.974Z,36.84
2022-08-18T01:25:22.090Z,36.81
2022-08-18T01:25:52.196Z,36.82
2022-08-18T01:26:22.305Z,36.85
2022-08-18T01:26:52.461Z,36.82
2022-08-18T01:27:22.439Z,36.82
2022-08-18T01:27:52.762Z,36.81
2022-08-18T01:28:22.552Z,36.82
2022-08-18T01:28:52.663Z,36.82
2022-08-18T01:29:22.776Z,36.81
2022-08-18T01:29:52.890Z,36.81
2022-08-18T01:30:23.035Z,36.81
2022-08-18T01:30:53.029Z,36.80
2022-08-18T01:31:23.140Z,36.78
2022-08-18T01:31:54.731Z,36.80
2022-08-18T01:32:23.307Z,36.78
2022-08-18T01:32:53.420Z,36.81
2022-08-18T01:33:30.070Z,36.75
2022-08-18T01:33:53.540Z,36.80
2022-08-18T01:34:23.646Z,36.84
2022-08-18T01:34:53.758Z,36.84
2022-08-18T01:35:23.875Z,36.76
2022-08-18T01:35:53.982Z,36.82
2022-08-18T01:36:24.098Z,36.82
2022-08-18T01:36:54.270Z,36.84
2022-08-18T01:37:24.223Z,36.82
2022-08-18T01:37:54.335Z,36.81
2022-08-18T01:38:24.444Z,36.80
2022-08-18T01:38:54.556Z,36.82
2022-08-18T01:41:09.222Z,36.76
2022-08-18T01:41:22.150Z,36.81
2022-08-18T01:41:22.318Z,36.84
2022-08-18T01:41:27.423Z,36.81
2022-08-18T01:41:30.257Z,36.84
2022-08-18T01:41:54.791Z,36.82
2022-08-18T01:42:24.776Z,36.85
2022-08-18T01:42:54.887Z,36.79
2022-08-18T01:43:25.003Z,36.82
2022-08-18T01:43:55.110Z,36.82
2022-08-18T01:44:25.227Z,36.87
2022-08-18T01:44:55.330Z,36.82
2022-08-18T01:45:25.448Z,36.81
2022-08-18T01:45:55.565Z,36.81
2022-08-18T01:46:25.666Z,36.76
2022-08-18T01:46:55.784Z,36.79
2022-08-18T01:47:25.891Z,36.82
2022-08-18T01:47:56.003Z,36.79
2022-08-18T01:48:26.109Z,36.75
2022-08-18T01:48:56.218Z,36.78
2022-08-18T01:49:26.327Z,36.79
2022-08-18T01:49:56.441Z,36.79
2022-08-18T01:50:26.553Z,36.78
2022-08-18T01:50:56.661Z,36.79
2022-08-18T01:51:34.723Z,36.79
2022-08-18T01:51:56.783Z,36.78
2022-08-18T01:52:26.897Z,36.79
2022-08-18T01:52:57.008Z,36.78
2022-08-18T01:53:27.124Z,36.82
2022-08-18T01:53:57.136Z,36.81
2022-08-18T01:54:27.245Z,36.85
2022-08-18T01:54:57.354Z,36.84
2022-08-18T01:55:27.470Z,36.84
2022-08-18T01:55:57.583Z,36.82
2022-08-18T01:56:27.700Z,36.87
2022-08-18T01:56:57.808Z,36.82
2022-08-18T01:57:27.917Z,36.84
2022-08-18T01:57:58.031Z,36.87
2022-08-18T01:58:31.556Z,36.82
2022-08-18T01:58:58.149Z,36.82
2022-08-18T01:59:28.262Z,36.88
2022-08-18T01:59:58.373Z,36.79
2022-08-18T02:00:28.493Z,36.85
2022-08-18T02:00:58.603Z,36.86
2022-08-18T02:01:36.514Z,36.85
2022-08-18T02:01:58.765Z,36.84
2022-08-18T02:02:28.811Z,36.89
2022-08-18T02:03:02.288Z,36.85
2022-08-18T02:03:28.838Z,36.85
2022-08-18T02:04:23.369Z,36.90
2022-08-18T02:04:35.497Z,36.86
2022-08-18T02:04:59.084Z,36.85
2022-08-18T02:05:29.161Z,36.89
2022-08-18T02:05:59.240Z,36.86
2022-08-18T02:06:33.762Z,36.89
2022-08-18T02:06:59.387Z,36.84
2022-08-18T02:07:36.107Z,36.89
2022-08-18T02:07:59.563Z,36.89
2022-08-18T02:08:29.637Z,36.86
2022-08-18T02:08:59.714Z,36.86
2022-08-18T02:09:29.781Z,36.88
2022-08-18T02:09:59.813Z,36.83
2022-08-18T02:10:29.886Z,36.89
2022-08-18T02:10:59.957Z,36.88
2022-08-18T02:11:30.027Z,36.88
2022-08-18T02:12:00.111Z,36.85
2022-08-18T02:12:30.170Z,36.86
2022-08-18T02:13:00.238Z,36.86
2022-08-18T02:13:30.319Z,36.81
2022-08-18T02:14:00.399Z,36.84
2022-08-18T02:14:31.480Z,36.85
2022-08-18T02:15:00.519Z,36.82
2022-08-18T02:15:30.632Z,36.86
2022-08-18T02:16:00.741Z,36.87
2022-08-18T02:16:30.851Z,36.87
2022-08-18T02:17:02.125Z,36.82
2022-08-18T02:17:31.050Z,36.82
2022-08-18T02:18:01.164Z,36.89
2022-08-18T02:18:47.623Z,36.88
2022-08-18T02:19:01.284Z,36.84
2022-08-18T02:19:31.397Z,36.85
2022-08-18T02:20:01.509Z,36.85
2022-08-18T02:20:31.615Z,36.84
2022-08-18T02:21:01.730Z,36.91
2022-08-18T02:21:31.841Z,36.88
2022-08-18T02:22:01.962Z,36.87
2022-08-18T02:22:32.067Z,36.86
2022-08-18T02:23:02.189Z,36.91
2022-08-18T02:23:32.295Z,36.85
2022-08-18T02:24:02.402Z,36.85
2022-08-18T02:24:32.398Z,36.86
2022-08-18T02:25:02.511Z,36.84
2022-08-18T02:25:32.628Z,36.84
2022-08-18T02:26:02.739Z,36.82
2022-08-18T02:26:32.844Z,36.79
2022-08-18T02:27:02.961Z,36.84
2022-08-18T02:27:33.071Z,36.83
2022-08-18T02:28:03.179Z,36.86
2022-08-18T02:28:33.290Z,36.80
2022-08-18T02:29:03.401Z,36.81
2022-08-18T02:29:33.515Z,36.87
2022-08-18T02:30:03.630Z,36.84
2022-08-18T02:30:33.790Z,36.83
2022-08-18T02:31:03.777Z,36.80
2022-08-18T02:31:33.889Z,36.81
2022-08-18T02:32:03.993Z,36.80
2022-08-18T02:32:34.104Z,36.82
2022-08-18T02:33:04.213Z,36.82
2022-08-18T02:33:34.328Z,36.84
2022-08-18T02:34:04.445Z,36.85
2022-08-18T02:34:34.547Z,36.84
2022-08-18T02:35:04.669Z,36.82
2022-08-18T02:35:34.685Z,36.85
2022-08-18T02:36:04.791Z,36.84
2022-08-18T02:36:34.902Z,36.80
2022-08-18T02:37:05.014Z,36.85
2022-08-18T02:37:35.123Z,36.84
2022-08-18T02:38:05.233Z,36.84
2022-08-18T02:38:35.277Z,36.76
2022-08-18T02:39:05.387Z,36.79
2022-08-18T02:39:35.605Z,36.84
2022-08-18T02:40:05.638Z,36.79
2022-08-18T02:40:35.548Z,36.82
2022-08-18T02:41:05.655Z,36.84
2022-08-18T02:41:35.766Z,36.82
2022-08-18T02:42:05.877Z,36.78
2022-08-18T02:42:35.991Z,36.85
2022-08-18T02:43:06.103Z,36.82
2022-08-18T02:43:37.785Z,36.76
2022-08-18T02:44:06.230Z,36.79
2022-08-18T02:44:36.341Z,36.81
2022-08-18T02:45:06.466Z,36.79
2022-08-18T02:45:36.551Z,36.82
2022-08-18T02:46:06.660Z,36.84
2022-08-18T02:46:36.772Z,36.79
2022-08-18T02:47:06.888Z,36.81
2022-08-18T02:47:37.000Z,36.82
2022-08-18T02:48:07.110Z,36.82
2022-08-18T02:48:37.222Z,36.82
2022-08-18T02:49:07.339Z,36.79
2022-08-18T02:49:37.442Z,36.77
2022-08-18T02:50:07.562Z,36.82
2022-08-18T02:50:37.621Z,36.78
2022-08-18T02:51:07.726Z,36.79
2022-08-18T02:51:37.841Z,36.79
2022-08-18T02:52:07.954Z,36.79
2022-08-18T02:52:38.362Z,36.79
2022-08-18T02:53:08.096Z,36.78
2022-08-18T02:53:38.209Z,36.80
2022-08-18T02:54:08.319Z,36.76
2022-08-18T02:54:38.434Z,36.79
2022-08-18T02:55:08.537Z,36.76
2022-08-18T02:55:38.655Z,36.79
2022-08-18T02:56:08.769Z,36.74
2022-08-18T02:56:41.330Z,36.79
2022-08-18T02:57:08.996Z,36.79
2022-08-18T02:57:39.107Z,36.79
2022-08-18T02:58:09.218Z,36.80
2022-08-18T02:58:39.332Z,36.80
2022-08-18T02:59:09.446Z,36.76
2022-08-18T02:59:39.557Z,36.78
2022-08-18T03:00:09.670Z,36.79
2022-08-18T03:00:39.695Z,36.76
2022-08-18T03:01:09.876Z,36.76
2022-08-18T03:01:39.964Z,36.76
2022-08-18T03:02:09.951Z,36.76
2022-08-18T03:02:40.062Z,36.74
2022-08-18T03:03:10.060Z,36.72
2022-08-18T03:03:40.171Z,36.79
2022-08-18T03:04:10.282Z,36.78
2022-08-18T03:04:40.400Z,36.70
2022-08-18T03:05:14.871Z,36.80
2022-08-18T03:05:40.483Z,36.74
2022-08-18T03:06:10.559Z,36.76
2022-08-18T03:06:40.631Z,36.74
2022-08-18T03:07:10.632Z,36.76
2022-08-18T03:07:40.708Z,36.73
2022-08-18T03:08:10.778Z,36.70
2022-08-18T03:08:40.852Z,36.72
2022-08-18T03:09:10.928Z,36.72
2022-08-18T03:09:41.049Z,36.70
2022-08-18T03:10:32.959Z,36.74
2022-08-18T03:10:41.230Z,36.70
2022-08-18T03:11:11.301Z,36.70
2022-08-18T03:11:41.376Z,36.74
2022-08-18T03:12:11.459Z,36.74
2022-08-18T03:12:41.536Z,36.73
2022-08-18T03:13:11.610Z,36.72
2022-08-18T03:13:41.682Z,36.73
2022-08-18T03:14:11.904Z,36.73
2022-08-18T03:14:41.850Z,36.67
2022-08-18T03:15:11.963Z,36.73
2022-08-18T03:15:42.080Z,36.73
2022-08-18T03:16:12.192Z,36.73
2022-08-18T03:16:52.742Z,36.74
2022-08-18T03:17:12.315Z,36.68
2022-08-18T03:17:42.425Z,36.73
2022-08-18T03:18:12.543Z,36.72
2022-08-18T03:18:42.654Z,36.73
2022-08-18T03:19:12.763Z,36.74
2022-08-18T03:19:42.875Z,36.77
2022-08-18T03:20:12.880Z,36.76
2022-08-18T03:20:43.019Z,36.73
2022-08-18T03:21:13.106Z,36.71
2022-08-18T03:21:43.133Z,36.74
2022-08-18T03:22:27.286Z,36.74
2022-08-18T03:22:43.245Z,36.76
2022-08-18T03:23:13.365Z,36.73
2022-08-18T03:23:43.368Z,36.70
2022-08-18T03:24:15.812Z,36.67
2022-08-18T03:24:43.481Z,36.73
2022-08-18T03:25:13.602Z,36.73
2022-08-18T03:25:43.590Z,36.71
2022-08-18T03:26:13.704Z,36.70
2022-08-18T03:26:43.818Z,36.73
2022-08-18T03:27:13.927Z,36.77
2022-08-18T03:27:44.081Z,36.74
2022-08-18T03:28:14.053Z,36.70
2022-08-18T03:28:44.165Z,36.76
2022-08-18T03:29:14.274Z,36.73
2022-08-18T03:29:44.389Z,36.71
2022-08-18T03:30:14.506Z,36.76
2022-08-18T03:30:44.624Z,36.73
2022-08-18T03:31:14.739Z,36.74
2022-08-18T03:31:44.848Z,36.71
2022-08-18T03:32:14.961Z,36.74
2022-08-18T03:32:45.701Z,36.70
2022-08-18T03:33:15.118Z,36.76
2022-08-18T03:33:45.241Z,36.72
2022-08-18T03:34:15.352Z,36.77
2022-08-18T03:34:45.464Z,36.75
2022-08-18T03:35:15.590Z,36.71
2022-08-18T03:35:45.686Z,36.73
2022-08-18T03:36:15.803Z,36.72
2022-08-18T03:36:45.918Z,36.74
2022-08-18T03:37:16.039Z,36.69
2022-08-18T03:37:46.140Z,36.68
2022-08-18T03:38:16.254Z,36.72
2022-08-18T03:38:46.369Z,36.71
2022-08-18T03:39:16.379Z,36.77
2022-08-18T03:39:46.538Z,36.71
2022-08-18T03:40:16.600Z,36.78
2022-08-18T03:40:46.566Z,36.71
2022-08-18T03:41:16.676Z,36.75
2022-08-18T03:41:58.555Z,36.70
2022-08-18T03:42:16.709Z,36.77
2022-08-18T03:42:46.831Z,36.74
2022-08-18T03:43:23.610Z,36.72
2022-08-18T03:43:50.358Z,36.72
2022-08-18T03:44:16.926Z,36.69
2022-08-18T03:44:47.034Z,36.70
2022-08-18T03:45:18.016Z,36.72
2022-08-18T03:45:47.142Z,36.74
2022-08-18T03:46:17.257Z,36.72
2022-08-18T03:46:47.365Z,36.66
2022-08-18T03:47:17.474Z,36.70
2022-08-18T03:47:47.582Z,36.70
2022-08-18T03:48:17.699Z,36.71
2022-08-18T03:48:47.811Z,36.71
2022-08-18T03:49:17.923Z,36.69
2022-08-18T03:49:48.033Z,36.87
2022-08-18T03:50:18.159Z,36.85
2022-08-18T03:50:48.142Z,36.84
2022-08-18T03:51:18.254Z,36.84
2022-08-18T03:51:48.366Z,36.88
2022-08-18T03:52:18.491Z,36.84
2022-08-18T03:52:48.594Z,36.82
2022-08-18T03:53:18.706Z,36.80
2022-08-18T03:53:48.817Z,36.82
2022-08-18T03:54:18.926Z,36.81
2022-08-18T03:54:49.040Z,36.85
2022-08-18T03:55:19.152Z,36.81
2022-08-18T03:55:49.264Z,36.90
2022-08-18T03:56:19.379Z,36.90
2022-08-18T03:56:49.534Z,36.85
2022-08-18T03:57:19.496Z,36.88
2022-08-18T03:57:49.747Z,36.88
2022-08-18T03:58:19.690Z,36.81
2022-08-18T03:58:49.804Z,36.87
2022-08-18T03:59:19.929Z,36.86
2022-08-18T03:59:50.027Z,36.86
2022-08-18T04:00:20.144Z,36.88
2022-08-18T04:00:50.254Z,36.90
2022-08-18T04:01:26.309Z,36.96
2022-08-18T04:01:50.445Z,36.89
2022-08-18T04:02:20.443Z,36.89
2022-08-18T04:02:50.558Z,36.92
2022-08-18T04:03:20.669Z,36.86
2022-08-18T04:03:50.777Z,36.89
2022-08-18T04:04:20.860Z,36.85
2022-08-18T04:04:51.374Z,36.89
2022-08-18T04:05:59.882Z,36.93
2022-08-18T04:06:30.642Z,36.92
2022-08-18T04:06:59.981Z,36.86
2022-08-18T04:07:30.058Z,36.91
2022-08-18T04:08:00.129Z,36.93
2022-08-18T04:08:30.204Z,36.90
2022-08-18T04:09:00.273Z,36.84
2022-08-18T04:09:30.348Z,36.87
2022-08-18T04:10:00.420Z,36.92
2022-08-18T04:10:30.507Z,36.81
2022-08-18T04:11:00.578Z,36.92
2022-08-18T04:11:35.968Z,36.92
2022-08-18T04:12:00.759Z,36.89
2022-08-18T04:12:30.833Z,36.85
2022-08-18T04:13:00.904Z,36.89
2022-08-18T04:13:30.984Z,36.85
2022-08-18T04:14:01.062Z,36.85
2022-08-18T04:14:31.167Z,36.88
2022-08-18T04:15:01.240Z,36.91
2022-08-18T04:15:31.336Z,36.88
2022-08-18T04:16:01.319Z,36.91
2022-08-18T04:16:31.433Z,36.84
2022-08-18T04:17:01.546Z,36.81
2022-08-18T04:17:31.654Z,36.78
2022-08-18T04:18:04.234Z,36.79
2022-08-18T04:18:31.862Z,36.85
2022-08-18T04:19:01.972Z,36.81
2022-08-18T04:19:32.087Z,36.84
2022-08-18T04:20:02.195Z,36.84
2022-08-18T04:20:32.318Z,37.05
2022-08-18T04:21:02.305Z,37.13
2022-08-18T04:21:32.415Z,37.03
2022-08-18T04:22:02.525Z,37.13
2022-08-18T04:22:32.633Z,37.39
2022-08-18T04:23:02.746Z,38.01
2022-08-18T04:23:43.764Z,38.45
2022-08-18T04:24:02.865Z,38.66
2022-08-18T04:24:33.252Z,38.85
2022-08-18T04:25:02.980Z,39.09
2022-08-18T04:25:33.533Z,39.24
2022-08-18T04:26:03.173Z,39.51
2022-08-18T04:26:33.289Z,39.85
2022-08-18T04:27:03.399Z,40.02
2022-08-18T04:27:33.566Z,40.25
2022-08-18T04:28:03.798Z,40.46
2022-08-18T04:28:33.594Z,40.71
2022-08-18T04:29:03.624Z,40.88
2022-08-18T04:29:33.629Z,41.12
2022-08-18T04:30:03.741Z,41.38
2022-08-18T04:30:33.868Z,41.52
2022-08-18T04:31:03.854Z,41.77
2022-08-18T04:31:33.867Z,41.87
2022-08-18T04:32:03.982Z,42.07
2022-08-18T04:32:34.094Z,42.52
2022-08-18T04:33:04.205Z,42.60
2022-08-18T04:33:34.325Z,42.65
2022-08-18T04:34:04.430Z,42.83
2022-08-18T04:34:34.549Z,42.91
2022-08-18T04:35:04.656Z,42.97
2022-08-18T04:35:34.780Z,43.20
2022-08-18T04:36:04.767Z,43.31
2022-08-18T04:36:34.882Z,43.35
2022-08-18T04:37:04.999Z,43.44
2022-08-18T04:37:38.056Z,43.55
2022-08-18T04:38:05.106Z,43.68
2022-08-18T04:38:35.216Z,43.69
2022-08-18T04:39:05.325Z,43.75
2022-08-18T04:39:35.528Z,43.85
2022-08-18T04:40:05.557Z,43.89
2022-08-18T04:40:35.547Z,43.96
2022-08-18T04:41:05.539Z,43.97
2022-08-18T04:41:35.648Z,44.06
2022-08-18T04:42:05.762Z,44.12
2022-08-18T04:42:35.870Z,44.17
2022-08-18T04:43:05.875Z,44.17
2022-08-18T04:43:35.990Z,44.21
2022-08-18T04:44:06.103Z,44.26
2022-08-18T04:44:36.214Z,44.21
2022-08-18T04:45:06.325Z,44.29
2022-08-18T04:45:36.445Z,44.32
2022-08-18T04:46:06.428Z,44.29
2022-08-18T04:46:36.542Z,44.38
2022-08-18T04:47:06.646Z,44.40
2022-08-18T04:47:36.761Z,44.41
2022-08-18T04:48:06.869Z,44.52
2022-08-18T04:48:36.976Z,44.62
2022-08-18T04:49:07.084Z,44.54
2022-08-18T04:49:37.194Z,44.62
2022-08-18T04:50:07.303Z,44.68
2022-08-18T04:50:37.439Z,44.66
2022-08-18T04:51:07.536Z,44.78
2022-08-18T04:52:36.524Z,44.74
2022-08-18T04:52:36.935Z,44.78
2022-08-18T04:52:41.620Z,44.87
2022-08-18T04:53:07.769Z,44.98
2022-08-18T04:53:37.879Z,45.01
2022-08-18T04:54:07.989Z,45.10
2022-08-18T04:54:38.105Z,45.16
2022-08-18T04:55:08.224Z,45.22
2022-08-18T04:55:38.233Z,45.28
2022-08-18T04:56:08.214Z,45.31
2022-08-18T04:56:38.327Z,45.29
2022-08-18T04:57:08.444Z,45.40
2022-08-18T04:57:38.570Z,45.39
2022-08-18T04:58:08.666Z,45.61
2022-08-18T04:58:38.782Z,45.69
2022-08-18T04:59:08.894Z,45.70
2022-08-18T04:59:39.009Z,45.73
2022-08-18T05:00:09.119Z,45.71
2022-08-18T05:00:39.246Z,45.83
2022-08-18T05:01:09.321Z,45.87
2022-08-18T05:01:39.370Z,45.88
2022-08-18T05:02:14.103Z,45.85
2022-08-18T05:02:39.386Z,45.89
2022-08-18T05:03:09.494Z,45.88
2022-08-18T05:03:41.247Z,45.96
2022-08-18T05:04:09.613Z,45.98
2022-08-18T05:04:39.724Z,45.99
2022-08-18T05:05:09.834Z,45.95
2022-08-18T05:05:39.942Z,45.88
2022-08-18T05:06:10.017Z,45.91
2022-08-18T05:06:40.091Z,45.91
2022-08-18T05:07:10.167Z,45.86
2022-08-18T05:07:40.240Z,45.82
2022-08-18T05:08:10.314Z,45.79
2022-08-18T05:08:40.387Z,45.93
2022-08-18T05:09:10.448Z,45.90
2022-08-18T05:09:41.284Z,45.83
2022-08-18T05:10:10.613Z,45.88
2022-08-18T05:10:40.703Z,45.77
2022-08-18T05:11:10.775Z,45.82
2022-08-18T05:11:40.846Z,45.81
2022-08-18T05:12:10.922Z,45.85
2022-08-18T05:12:40.995Z,45.85
2022-08-18T05:13:11.068Z,45.89
2022-08-18T05:13:41.147Z,45.83
2022-08-18T05:14:11.200Z,45.86
2022-08-18T05:14:41.279Z,45.90
2022-08-18T05:15:11.355Z,45.90
2022-08-18T05:16:07.077Z,45.87
2022-08-18T05:16:18.070Z,46.02
2022-08-18T05:16:42.202Z,45.97
2022-08-18T05:17:11.510Z,46.02
2022-08-18T05:17:41.594Z,46.01
2022-08-18T05:18:11.778Z,46.03
2022-08-18T05:18:41.802Z,46.05
2022-08-18T05:19:11.835Z,46.05
2022-08-18T05:19:43.979Z,46.06
2022-08-18T05:20:12.005Z,46.09
2022-08-18T05:20:42.131Z,46.08
2022-08-18T05:21:12.234Z,46.12
2022-08-18T05:21:42.225Z,46.10
2022-08-18T05:22:12.263Z,46.11
2022-08-18T05:22:42.303Z,46.18
2022-08-18T05:23:12.415Z,46.14
2022-08-18T05:23:42.529Z,46.17
2022-08-18T05:24:12.638Z,46.15
2022-08-18T05:24:42.756Z,46.17
2022-08-18T05:25:12.876Z,46.27
2022-08-18T05:25:42.989Z,46.38
2022-08-18T05:26:13.108Z,46.27
2022-08-18T05:26:43.223Z,46.24
2022-08-18T05:27:13.326Z,46.19
2022-08-18T05:27:43.442Z,46.18
2022-08-18T05:28:13.552Z,46.17
2022-08-18T05:28:43.667Z,46.21
2022-08-18T05:29:18.495Z,46.17
2022-08-18T05:29:46.109Z,46.15
2022-08-18T05:30:13.898Z,46.22
2022-08-18T05:30:44.005Z,46.22
2022-08-18T05:31:14.176Z,46.19
2022-08-18T05:31:44.135Z,46.26
2022-08-18T05:32:38.369Z,46.36
2022-08-18T05:32:47.828Z,46.31
2022-08-18T05:33:14.263Z,46.35
2022-08-18T05:33:44.376Z,46.25
2022-08-18T05:34:14.489Z,46.35
2022-08-18T05:34:44.605Z,46.30
2022-08-18T05:35:14.716Z,46.34
2022-08-18T05:35:44.840Z,46.31
2022-08-18T05:36:14.948Z,46.37
2022-08-18T05:36:45.057Z,46.34
2022-08-18T05:37:15.170Z,46.31
2022-08-18T05:37:45.279Z,46.37
2022-08-18T05:38:15.396Z,46.43
2022-08-18T05:38:45.507Z,46.38
2022-08-18T05:39:15.619Z,46.42
2022-08-18T05:39:45.834Z,46.44
2022-08-18T05:40:15.932Z,46.40
2022-08-18T05:40:45.837Z,46.47
2022-08-18T05:41:15.826Z,46.50
2022-08-18T05:41:45.936Z,46.43
2022-08-18T05:42:16.049Z,46.51
2022-08-18T05:42:46.162Z,46.59
2022-08-18T05:43:16.279Z,46.55
2022-08-18T05:43:52.035Z,46.57
2022-08-18T05:44:16.409Z,46.51
2022-08-18T05:44:46.540Z,46.53
2022-08-18T05:45:16.644Z,46.50
2022-08-18T05:45:46.764Z,46.45
2022-08-18T05:46:16.883Z,46.45
2022-08-18T05:46:46.892Z,46.32
2022-08-18T05:47:17.007Z,46.37
2022-08-18T05:47:47.131Z,46.32
2022-08-18T05:48:17.117Z,46.27
2022-08-18T05:48:47.230Z,46.31
2022-08-18T05:49:17.350Z,46.29
2022-08-18T05:49:47.340Z,46.25
2022-08-18T05:50:17.459Z,46.29
2022-08-18T05:50:47.813Z,46.25
2022-08-18T05:51:17.681Z,46.21
2022-08-18T05:51:47.804Z,46.12
2022-08-18T05:52:17.791Z,46.12
2022-08-18T05:52:47.907Z,46.08
2022-08-18T05:53:18.019Z,46.04
2022-08-18T05:53:48.042Z,46.04
2022-08-18T05:54:18.154Z,46.15
2022-08-18T05:54:48.273Z,46.18
2022-08-18T05:55:18.262Z,46.27
2022-08-18T05:55:48.372Z,46.37
2022-08-18T05:56:18.490Z,46.45
2022-08-18T05:56:48.602Z,46.51
2022-08-18T05:57:18.717Z,46.63
2022-08-18T05:57:48.837Z,46.75
2022-08-18T05:58:18.946Z,46.84
2022-08-18T05:58:49.058Z,46.88
2022-08-18T05:59:19.167Z,46.88
2022-08-18T05:59:49.278Z,46.90
2022-08-18T06:00:19.397Z,46.82
2022-08-18T06:00:49.545Z,46.84
2022-08-18T06:01:19.544Z,46.86
2022-08-18T06:01:49.525Z,46.88
2022-08-18T06:02:19.650Z,46.85
2022-08-18T06:02:49.792Z,46.92
2022-08-18T06:03:19.868Z,46.89
2022-08-18T06:03:49.859Z,46.87
2022-08-18T06:04:19.975Z,46.82
2022-08-18T06:04:50.076Z,46.87
2022-08-18T06:05:20.193Z,46.87
2022-08-18T06:05:50.279Z,46.89
2022-08-18T06:06:20.399Z,46.85
2022-08-18T06:06:50.500Z,46.85
2022-08-18T06:07:20.454Z,46.83
2022-08-18T06:07:50.703Z,46.84
2022-08-18T06:08:20.640Z,46.92
2022-08-18T06:08:50.706Z,46.95
2022-08-18T06:09:20.778Z,46.95
2022-08-18T06:09:50.852Z,46.96
2022-08-18T06:10:20.926Z,47.03
2022-08-18T06:10:51.005Z,47.04
2022-08-18T06:11:22.735Z,46.98
2022-08-18T06:11:51.191Z,47.31
2022-08-18T06:12:21.262Z,47.27
2022-08-18T06:12:51.355Z,47.18
2022-08-18T06:13:21.434Z,47.62
2022-08-18T06:13:54.261Z,47.27
2022-08-18T06:14:21.621Z,48.37
2022-08-18T06:14:51.695Z,48.90
2022-08-18T06:15:21.779Z,48.51
2022-08-18T06:15:51.886Z,49.13
2022-08-18T06:16:22.006Z,49.00
2022-08-18T06:16:52.116Z,48.93
2022-08-18T06:17:22.240Z,48.39
2022-08-18T06:17:52.410Z,48.23
2022-08-18T06:18:22.259Z,48.23
2022-08-18T06:18:52.366Z,48.17
2022-08-18T06:19:22.492Z,48.43
2022-08-18T06:19:52.593Z,48.53
2022-08-18T06:20:22.719Z,48.64
2022-08-18T06:20:52.711Z,48.55
2022-08-18T06:21:22.817Z,48.46
2022-08-18T06:21:52.934Z,48.21
2022-08-18T06:22:23.059Z,48.04
2022-08-18T06:22:55.239Z,47.92
2022-08-18T06:23:23.586Z,47.83
2022-08-18T06:23:53.082Z,47.99
2022-08-18T06:24:23.091Z,47.75
2022-08-18T06:24:53.076Z,47.59
2022-08-18T06:25:23.232Z,47.47
2022-08-18T06:25:53.226Z,47.44
2022-08-18T06:26:23.331Z,47.36
2022-08-18T06:26:53.445Z,47.29
2022-08-18T06:27:23.564Z,47.22
2022-08-18T06:27:53.771Z,47.19